Time;durP1;ratioP1;P1;durP2;ratioP2;P2;SDS_P1;SDS_P2;PMS_P1;PMS_P2;Temp;Humidity;BMP_temperature;BMP_pressure;BME280_temperature;BME280_humidity;BME280_pressure;Samples;Min_cycle;Max_cycle;Signal;HPM_P1;HPM_P2
2022/08/09 00:02:58;;;;;;;3.50;3.30;;;21.90;56.00;;;;;;10503453;28;20232;-80
2022/08/09 00:08:00;;;;;;;3.70;3.50;;;21.90;56.40;;;;;;10521622;28;20615;-81
2022/08/09 00:13:05;;;;;;;3.50;3.30;;;21.80;56.90;;;;;;10465655;28;20709;-81
2022/08/09 00:18:07;;;;;;;4.53;3.70;;;21.80;57.30;;;;;;10519316;28;20201;-80
2022/08/09 00:23:09;;;;;;;3.57;3.37;;;21.80;57.40;;;;;;10522479;28;20219;-82
2022/08/09 00:28:13;;;;;;;3.47;3.20;;;21.80;57.30;;;;;;10529310;28;20199;-82
2022/08/09 00:33:15;;;;;;;3.63;3.40;;;21.80;57.60;;;;;;10498706;28;20266;-81
2022/08/09 00:38:17;;;;;;;3.63;3.40;;;21.80;57.60;;;;;;10522007;28;20215;-81
2022/08/09 00:43:21;;;;;;;3.33;3.23;;;21.70;57.90;;;;;;10489865;28;20250;-81
2022/08/09 00:48:23;;;;;;;3.70;3.50;;;21.70;57.10;;;;;;10508292;28;20222;-81
2022/08/09 00:53:29;;;;;;;3.50;3.30;;;21.70;57.40;;;;;;10508447;28;20224;-81
2022/08/09 00:58:34;;;;;;;3.93;3.73;;;21.60;57.70;;;;;;10523267;28;20237;-79
2022/08/09 01:03:54;;;;;;;3.70;3.60;;;21.50;58.40;;;;;;10523054;28;20227;-81
2022/08/09 01:09:08;;;;;;;3.83;3.60;;;21.40;58.20;;;;;;10527350;28;20252;-82
2022/08/09 01:14:20;;;;;;;4.70;4.40;;;21.40;58.10;;;;;;10526406;22;20299;-79
2022/08/09 01:19:41;;;;;;;4.10;3.90;;;21.30;58.50;;;;;;10513477;28;20256;-79
2022/08/09 01:24:54;;;;;;;4.20;3.77;;;21.30;58.00;;;;;;10514916;28;20679;-77
2022/08/09 01:30:00;;;;;;;4.47;4.07;;;21.30;58.80;;;;;;10518355;28;20247;-77
2022/08/09 01:35:07;;;;;;;4.30;3.90;;;21.20;58.80;;;;;;10491310;28;20699;-79
2022/08/09 01:40:11;;;;;;;4.27;3.97;;;21.10;58.80;;;;;;10515479;28;20230;-78
2022/08/09 01:45:16;;;;;;;3.90;3.67;;;21.10;59.40;;;;;;10533882;28;20215;-77
2022/08/09 01:50:18;;;;;;;3.93;3.60;;;21.00;59.60;;;;;;10530029;28;20283;-77
2022/08/09 01:55:23;;;;;;;4.20;4.00;;;21.00;59.90;;;;;;10537680;28;20223;-79
2022/08/09 02:00:28;;;;;;;3.50;3.30;;;21.00;60.20;;;;;;10494438;28;20227;-80
2022/08/09 02:05:32;;;;;;;3.90;3.60;;;21.00;61.20;;;;;;10535994;28;20273;-80
2022/08/09 02:10:38;;;;;;;4.20;4.00;;;20.90;60.00;;;;;;10523769;28;20223;-80
2022/08/09 02:15:43;;;;;;;4.23;3.90;;;20.90;60.30;;;;;;10513346;28;20238;-80
2022/08/09 02:20:50;;;;;;;3.93;3.73;;;20.80;61.40;;;;;;10514696;28;20251;-80
2022/08/09 02:25:55;;;;;;;4.17;3.97;;;20.70;61.10;;;;;;10503062;28;20334;-79
2022/08/09 02:31:03;;;;;;;3.93;3.73;;;20.70;60.90;;;;;;10534267;28;20615;-80
2022/08/09 02:36:08;;;;;;;4.37;4.17;;;20.70;60.30;;;;;;10535990;28;20215;-80
2022/08/09 02:41:17;;;;;;;4.27;4.07;;;20.60;61.80;;;;;;10523650;28;20225;-78
2022/08/09 02:46:24;;;;;;;4.20;4.00;;;20.60;61.60;;;;;;10497984;28;20196;-81
2022/08/09 02:51:27;;;;;;;4.13;3.93;;;20.50;62.10;;;;;;10520415;28;20856;-80
2022/08/09 02:56:31;;;;;;;4.40;4.10;;;20.50;61.20;;;;;;10536719;28;20200;-80
2022/08/09 03:01:37;;;;;;;4.47;4.27;;;20.50;61.00;;;;;;10526953;28;20216;-80
2022/08/09 03:06:41;;;;;;;4.90;4.60;;;20.40;62.30;;;;;;10544158;28;20206;-79
2022/08/09 03:11:43;;;;;;;4.90;4.50;;;20.40;61.90;;;;;;10515596;28;20247;-79
2022/08/09 03:16:48;;;;;;;3.97;3.77;;;20.40;61.20;;;;;;10490142;28;20338;-81
2022/08/09 03:21:51;;;;;;;4.90;4.60;;;20.40;61.30;;;;;;10489922;28;20228;-81
2022/08/09 03:26:54;;;;;;;4.03;3.83;;;20.40;60.50;;;;;;10537395;28;20682;-79
2022/08/09 03:31:58;;;;;;;4.20;3.87;;;20.30;60.40;;;;;;10511496;28;20306;-81
2022/08/09 03:37:01;;;;;;;4.90;4.63;;;20.20;61.60;;;;;;10542506;28;20216;-80
2022/08/09 03:42:03;;;;;;;4.10;3.90;;;20.20;62.40;;;;;;10531539;28;20577;-81
2022/08/09 03:47:07;;;;;;;4.67;4.37;;;20.10;62.40;;;;;;10542012;28;20245;-81
2022/08/09 03:52:10;;;;;;;4.67;4.47;;;20.10;61.80;;;;;;10532300;28;20665;-79
2022/08/09 03:57:14;;;;;;;4.53;4.33;;;20.10;62.50;;;;;;10512079;28;20227;-81
2022/08/09 04:02:18;;;;;;;5.13;4.70;;;20.10;63.30;;;;;;10530542;28;20230;-80
2022/08/09 04:07:21;;;;;;;5.97;5.67;;;20.10;63.70;;;;;;10520241;28;20192;-81
2022/08/09 04:12:43;;;;;;;5.80;5.50;;;20.00;63.70;;;;;;10514090;28;20230;-80
2022/08/09 04:17:47;;;;;;;5.30;5.10;;;20.10;64.50;;;;;;10528644;28;20226;-80
2022/08/09 04:22:49;;;;;;;5.80;5.40;;;20.00;64.20;;;;;;10530773;28;20344;-79
2022/08/09 04:27:51;;;;;;;4.60;4.27;;;20.00;64.10;;;;;;10542173;28;20192;-81
2022/08/09 04:32:55;;;;;;;5.60;5.40;;;20.00;64.40;;;;;;10535168;28;20223;-78
2022/08/09 04:37:57;;;;;;;5.67;5.17;;;20.00;65.30;;;;;;10560782;28;20216;-80
2022/08/09 04:42:59;;;;;;;5.53;5.17;;;20.00;64.90;;;;;;10551030;28;20246;-79
2022/08/09 04:48:03;;;;;;;3.93;3.53;;;20.00;65.40;;;;;;10508866;28;20228;-78
2022/08/09 04:53:06;;;;;;;4.97;4.77;;;20.00;66.40;;;;;;10522375;28;20792;-78
2022/08/09 04:58:08;;;;;;;3.50;3.30;;;20.00;65.90;;;;;;10513488;28;20215;-80
2022/08/09 05:03:12;;;;;;;6.47;5.93;;;20.10;65.40;;;;;;10521525;28;20226;-78
2022/08/09 05:08:14;;;;;;;5.53;5.03;;;20.10;66.80;;;;;;10540547;28;20203;-78
2022/08/09 05:13:16;;;;;;;6.43;5.93;;;20.10;68.20;;;;;;10533255;28;20232;-77
2022/08/09 05:18:21;;;;;;;5.60;5.30;;;20.10;68.50;;;;;;10535679;28;20238;-78
2022/08/09 05:23:23;;;;;;;4.90;4.60;;;20.10;68.10;;;;;;10534256;28;20587;-77
2022/08/09 05:28:26;;;;;;;6.07;5.57;;;20.10;68.00;;;;;;10530465;28;20580;-77
2022/08/09 05:33:29;;;;;;;5.60;5.30;;;20.10;68.70;;;;;;10513652;28;20266;-77
2022/08/09 05:38:32;;;;;;;5.20;4.90;;;20.10;68.20;;;;;;10532638;28;20700;-78
2022/08/09 05:43:35;;;;;;;5.50;5.20;;;20.20;67.90;;;;;;10534839;28;20594;-77
2022/08/09 05:48:38;;;;;;;6.53;4.67;;;20.20;68.20;;;;;;10517339;28;20212;-78
2022/08/09 05:53:40;;;;;;;5.77;5.43;;;20.30;67.40;;;;;;10536651;28;20289;-78
2022/08/09 05:58:42;;;;;;;4.57;4.27;;;20.30;68.20;;;;;;10514723;28;20246;-77
2022/08/09 06:03:46;;;;;;;5.60;5.23;;;20.40;67.90;;;;;;10507659;28;20227;-77
2022/08/09 06:08:48;;;;;;;5.03;4.73;;;20.40;68.10;;;;;;10533685;28;20204;-78
2022/08/09 06:13:50;;;;;;;5.80;5.30;;;20.50;67.30;;;;;;10512757;28;20256;-78
2022/08/09 06:18:53;;;;;;;6.23;5.67;;;20.60;68.30;;;;;;10478536;28;20208;-78
2022/08/09 06:23:55;;;;;;;6.33;5.93;;;20.60;68.70;;;;;;10489847;28;20289;-78
2022/08/09 06:28:58;;;;;;;6.60;5.93;;;20.80;68.60;;;;;;10533466;28;20278;-78
2022/08/09 06:34:01;;;;;;;7.67;7.00;;;20.90;68.00;;;;;;10531783;28;20298;-78
2022/08/09 06:39:04;;;;;;;10.80;6.77;;;21.00;67.50;;;;;;10512440;28;20211;-78
2022/08/09 06:44:06;;;;;;;10.40;7.47;;;21.10;67.50;;;;;;10530583;28;20361;-78
2022/08/09 06:49:09;;;;;;;7.77;6.90;;;21.20;67.60;;;;;;10479461;28;20196;-77
2022/08/09 06:54:12;;;;;;;7.83;6.30;;;21.30;68.50;;;;;;10488095;28;20295;-78
2022/08/09 06:59:14;;;;;;;9.00;8.10;;;21.40;68.30;;;;;;10502308;28;20712;-78
2022/08/09 07:04:17;;;;;;;14.23;8.67;;;21.60;67.00;;;;;;10526878;28;20629;-77
2022/08/09 07:09:19;;;;;;;8.20;7.40;;;21.70;68.60;;;;;;10534054;28;20245;-78
2022/08/09 07:14:21;;;;;;;8.83;8.00;;;21.80;68.10;;;;;;10515725;28;20288;-78
2022/08/09 07:19:25;;;;;;;6.63;6.13;;;21.90;66.70;;;;;;10506066;28;20268;-78
2022/08/09 07:24:29;;;;;;;7.90;7.00;;;22.00;66.40;;;;;;10505365;28;20220;-80
2022/08/09 07:29:31;;;;;;;8.83;7.93;;;22.10;66.00;;;;;;10514964;28;20609;-78
2022/08/09 07:34:35;;;;;;;7.77;7.07;;;22.40;65.20;;;;;;10500183;28;20307;-78
2022/08/09 07:39:37;;;;;;;8.60;8.00;;;22.80;64.30;;;;;;10496637;28;20319;-77
2022/08/09 07:44:39;;;;;;;6.40;5.80;;;23.20;62.50;;;;;;10507198;28;20227;-77
2022/08/09 07:49:43;;;;;;;7.80;7.10;;;23.70;62.80;;;;;;10515475;28;20204;-77
2022/08/09 07:54:45;;;;;;;7.20;6.70;;;24.10;60.40;;;;;;10524599;28;20223;-77
2022/08/09 07:59:47;;;;;;;7.57;7.07;;;24.60;61.20;;;;;;10507139;28;20219;-77
2022/08/09 08:04:51;;;;;;;7.07;6.47;;;24.90;60.50;;;;;;10498935;28;20219;-78
2022/08/09 08:09:53;;;;;;;5.97;5.37;;;25.30;59.10;;;;;;10516120;28;20195;-78
2022/08/09 08:14:58;;;;;;;5.90;5.50;;;25.70;58.30;;;;;;10525909;28;20284;-78
2022/08/09 08:20:02;;;;;;;7.90;7.30;;;26.00;58.30;;;;;;10526038;28;20284;-78
2022/08/09 08:25:04;;;;;;;6.00;5.70;;;26.30;57.70;;;;;;10506119;28;20220;-78
2022/08/09 08:30:08;;;;;;;6.10;5.70;;;26.70;56.40;;;;;;10482524;28;20213;-79
2022/08/09 08:35:11;;;;;;;6.27;5.87;;;27.10;56.80;;;;;;10519849;28;20247;-83
2022/08/09 08:40:14;;;;;;;5.93;5.33;;;27.50;56.40;;;;;;10497009;28;20222;-79
2022/08/09 08:45:22;;;;;;;5.77;5.47;;;28.00;54.70;;;;;;10519895;28;20215;-79
2022/08/09 08:50:26;;;;;;;5.80;5.40;;;28.40;55.00;;;;;;10503386;28;20188;-78
2022/08/09 08:55:29;;;;;;;5.03;4.63;;;28.80;54.70;;;;;;10503894;28;20216;-79
2022/08/09 09:00:31;;;;;;;6.03;5.63;;;29.10;53.70;;;;;;10527877;28;20222;-78
2022/08/09 09:05:35;;;;;;;5.47;5.17;;;29.10;52.40;;;;;;10501898;28;20220;-79
2022/08/09 09:10:38;;;;;;;6.17;5.87;;;28.90;53.10;;;;;;10534398;28;20631;-80
2022/08/09 09:15:40;;;;;;;5.73;5.53;;;28.70;51.90;;;;;;10534515;28;20277;-79
2022/08/09 09:20:44;;;;;;;6.10;5.80;;;28.50;53.10;;;;;;10513052;28;20255;-79
2022/08/09 09:25:48;;;;;;;7.23;6.67;;;28.40;53.40;;;;;;10518996;28;20219;-80
2022/08/09 09:30:55;;;;;;;6.07;5.80;;;28.30;52.70;;;;;;10541965;28;20643;-79
2022/08/09 09:36:00;;;;;;;5.87;5.47;;;28.50;53.30;;;;;;10517557;28;20235;-79
2022/08/09 09:41:03;;;;;;;5.50;5.20;;;28.80;52.20;;;;;;10518529;28;20216;-79
2022/08/09 09:46:05;;;;;;;5.53;5.23;;;29.10;50.80;;;;;;10520186;28;20196;-80
2022/08/09 09:51:09;;;;;;;6.10;5.67;;;29.50;48.70;;;;;;10533928;28;20633;-79
2022/08/09 09:56:11;;;;;;;4.70;4.30;;;29.90;47.40;;;;;;10527686;28;20624;-80
2022/08/09 10:01:20;;;;;;;5.27;5.07;;;30.20;48.20;;;;;;10515951;28;20241;-79
2022/08/09 10:06:24;;;;;;;5.80;5.40;;;30.60;47.30;;;;;;10526825;28;20720;-79
2022/08/09 10:11:28;;;;;;;5.57;5.37;;;30.90;49.10;;;;;;10493791;28;20259;-79
2022/08/09 10:16:33;;;;;;;3.90;3.70;;;31.10;47.30;;;;;;10524809;28;20616;-78
2022/08/09 10:21:45;;;;;;;5.07;4.77;;;31.10;46.20;;;;;;10502121;28;20301;-79
2022/08/09 10:26:48;;;;;;;5.03;4.73;;;31.00;46.40;;;;;;10522168;28;20235;-79
2022/08/09 10:31:51;;;;;;;5.53;5.23;;;30.70;46.80;;;;;;10515942;28;20580;-79
2022/08/09 10:36:56;;;;;;;5.37;5.07;;;30.20;46.00;;;;;;10527349;28;20209;-79
2022/08/09 10:41:58;;;;;;;4.80;4.50;;;29.80;47.10;;;;;;10523963;28;20615;-79
2022/08/09 10:47:42;;;;;;;5.50;5.20;;;29.30;46.60;;;;;;10522676;28;20266;-80
2022/08/09 10:53:09;;;;;;;5.20;5.00;;;28.90;48.50;;;;;;10455157;28;20584;-79
2022/08/09 10:58:29;;;;;;;6.13;5.47;;;28.60;48.90;;;;;;10529578;28;20652;-79
2022/08/09 11:03:31;;;;;;;5.40;5.17;;;28.30;48.60;;;;;;10524418;28;20224;-79
2022/08/09 11:08:43;;;;;;;4.43;4.10;;;28.10;48.50;;;;;;10502934;28;20225;-79
2022/08/09 11:13:45;;;;;;;6.00;5.50;;;28.00;48.10;;;;;;10499507;28;20224;-79
2022/08/09 11:18:47;;;;;;;5.73;5.43;;;27.80;48.80;;;;;;10490621;28;20227;-79
2022/08/09 11:24:01;;;;;;;5.10;4.90;;;27.70;47.20;;;;;;10512649;28;20299;-80
2022/08/09 11:29:04;;;;;;;4.37;4.27;;;27.60;46.80;;;;;;10503261;28;20646;-79
2022/08/09 11:34:13;;;;;;;5.77;5.50;;;27.50;47.90;;;;;;10524792;28;20212;-79
2022/08/09 11:39:17;;;;;;;5.70;5.40;;;27.40;46.70;;;;;;10502412;28;20702;-77
2022/08/09 11:44:19;;;;;;;6.07;5.67;;;27.40;47.60;;;;;;10511058;28;20903;-79
2022/08/09 11:49:54;;;;;;;5.60;5.30;;;27.40;46.70;;;;;;10481680;28;20298;-80
2022/08/09 11:55:36;;;;;;;5.93;5.63;;;27.40;47.00;;;;;;10475057;28;20239;-81
2022/08/09 12:00:49;;;;;;;5.27;5.07;;;27.30;48.20;;;;;;10518473;28;20579;-79
2022/08/09 12:05:54;;;;;;;5.27;4.87;;;27.20;47.10;;;;;;10518904;28;20265;-78
2022/08/09 12:10:59;;;;;;;5.70;5.40;;;27.30;47.20;;;;;;10500462;28;20646;-78
2022/08/09 12:16:03;;;;;;;5.83;5.27;;;27.20;48.10;;;;;;10500362;28;20200;-81
2022/08/09 12:21:11;;;;;;;4.97;4.77;;;27.20;49.10;;;;;;10487337;28;20232;-78
2022/08/09 12:26:15;;;;;;;5.60;5.30;;;27.20;48.40;;;;;;10522477;28;20269;-79
2022/08/09 12:31:19;;;;;;;5.37;5.17;;;27.20;47.50;;;;;;10530337;28;20249;-79
2022/08/09 12:36:22;;;;;;;6.07;5.60;;;27.20;48.50;;;;;;10502185;28;20192;-79
2022/08/09 12:41:27;;;;;;;5.20;4.80;;;27.20;48.60;;;;;;10521589;28;20658;-79
2022/08/09 12:46:30;;;;;;;5.30;5.10;;;27.30;47.90;;;;;;10500702;28;20270;-81
2022/08/09 12:51:32;;;;;;;6.40;6.10;;;27.30;48.80;;;;;;10523500;28;20216;-81
2022/08/09 12:56:47;;;;;;;5.43;5.23;;;27.40;47.90;;;;;;10542986;28;20303;-80
2022/08/09 13:02:03;;;;;;;5.30;5.00;;;27.30;48.50;;;;;;10527550;28;20642;-80
2022/08/09 13:07:15;;;;;;;5.80;5.50;;;27.30;47.30;;;;;;10515544;28;20203;-79
2022/08/09 13:12:23;;;;;;;5.20;5.00;;;27.40;46.30;;;;;;10513065;28;20223;-80
2022/08/09 13:17:30;;;;;;;4.27;4.07;;;27.50;47.30;;;;;;10518227;28;20196;-80
2022/08/09 13:22:32;;;;;;;4.83;4.47;;;27.50;46.00;;;;;;10498849;28;20584;-80
2022/08/09 13:27:38;;;;;;;5.80;5.50;;;27.60;47.10;;;;;;10522564;28;20336;-80
2022/08/09 13:32:45;;;;;;;8.40;5.20;;;27.60;47.30;;;;;;10513409;28;20220;-80
2022/08/09 13:37:48;;;;;;;4.60;4.30;;;27.60;45.80;;;;;;10555457;28;20231;-80
2022/08/09 13:42:52;;;;;;;4.80;4.40;;;27.50;47.10;;;;;;10531881;28;20755;-80
2022/08/09 13:47:54;;;;;;;4.33;4.13;;;27.60;47.70;;;;;;10508825;28;20193;-80
2022/08/09 13:52:56;;;;;;;5.03;4.60;;;27.70;44.40;;;;;;10513704;28;20266;-79
2022/08/09 13:58:00;;;;;;;4.57;4.27;;;27.80;45.20;;;;;;10533251;28;20222;-79
2022/08/09 14:03:02;;;;;;;5.77;5.10;;;27.80;45.60;;;;;;10496834;28;20315;-79
2022/08/09 14:08:05;;;;;;;5.20;5.00;;;27.90;45.70;;;;;;10522825;28;20729;-79
2022/08/09 14:13:08;;;;;;;4.80;4.60;;;27.90;45.10;;;;;;10507808;28;20303;-79
2022/08/09 14:18:11;;;;;;;4.50;4.33;;;27.90;46.40;;;;;;10494029;28;20597;-79
2022/08/09 14:23:13;;;;;;;3.57;3.37;;;27.80;44.60;;;;;;10499868;28;20248;-79
2022/08/09 14:28:16;;;;;;;5.23;4.93;;;27.90;46.70;;;;;;10514566;28;20228;-79
2022/08/09 14:33:19;;;;;;;5.03;4.83;;;27.80;45.90;;;;;;10517913;28;20220;-79
2022/08/09 14:38:21;;;;;;;5.13;4.93;;;27.90;45.40;;;;;;10511244;28;20296;-79
2022/08/09 14:43:24;;;;;;;5.13;4.93;;;27.90;46.00;;;;;;10502533;28;20226;-79
2022/08/09 14:48:26;;;;;;;5.30;4.83;;;28.00;44.50;;;;;;10509740;28;20265;-80
2022/08/09 14:53:29;;;;;;;4.60;4.40;;;28.00;45.00;;;;;;10534637;28;20215;-79
2022/08/09 14:58:32;;;;;;;4.83;4.63;;;28.00;45.60;;;;;;10504354;28;20613;-79
2022/08/09 15:03:34;;;;;;;4.57;4.37;;;28.00;44.10;;;;;;10497529;28;20222;-79
2022/08/09 15:08:37;;;;;;;3.90;3.70;;;28.10;45.20;;;;;;10530472;28;20196;-80
2022/08/09 15:13:40;;;;;;;3.90;3.70;;;28.20;45.80;;;;;;10514051;28;20232;-79
2022/08/09 15:18:42;;;;;;;4.73;4.43;;;28.20;44.60;;;;;;10520232;28;20233;-79
2022/08/09 15:23:44;;;;;;;4.60;4.30;;;28.20;43.40;;;;;;10533531;28;20219;-79
2022/08/09 15:28:48;;;;;;;4.37;4.20;;;28.10;45.40;;;;;;10501053;28;20223;-79
2022/08/09 15:33:50;;;;;;;4.90;4.70;;;28.00;45.00;;;;;;10509278;28;20219;-79
2022/08/09 15:38:52;;;;;;;4.87;4.67;;;28.00;44.10;;;;;;10529464;28;20358;-79
2022/08/09 15:43:55;;;;;;;5.10;4.90;;;28.00;44.00;;;;;;10533204;28;20698;-79
2022/08/09 15:48:57;;;;;;;3.97;3.57;;;28.00;44.50;;;;;;10534244;28;20229;-79
2022/08/09 15:54:00;;;;;;;4.57;4.37;;;27.90;45.10;;;;;;10517596;28;20239;-80
2022/08/09 15:59:04;;;;;;;4.40;4.20;;;27.90;44.60;;;;;;10517697;28;20295;-80
2022/08/09 16:04:06;;;;;;;4.80;4.40;;;27.90;46.40;;;;;;10495726;28;20213;-80
2022/08/09 16:09:08;;;;;;;4.90;4.50;;;27.90;43.80;;;;;;10509665;28;20560;-79
2022/08/09 16:14:12;;;;;;;4.77;4.57;;;27.90;45.30;;;;;;10527822;28;20219;-79
2022/08/09 16:19:14;;;;;;;4.80;4.60;;;27.80;46.00;;;;;;10542969;28;20538;-79
2022/08/09 16:24:16;;;;;;;4.80;4.60;;;27.70;47.80;;;;;;10529657;28;20220;-79
2022/08/09 16:29:19;;;;;;;4.17;3.97;;;27.50;49.20;;;;;;10502090;28;20645;-79
2022/08/09 16:34:21;;;;;;;5.07;4.73;;;27.50;46.00;;;;;;10497604;28;20607;-78
2022/08/09 16:39:24;;;;;;;4.50;4.20;;;27.50;46.20;;;;;;10540185;28;20226;-80
2022/08/09 16:44:27;;;;;;;4.50;4.20;;;27.50;44.70;;;;;;10527813;28;20299;-79
2022/08/09 16:49:29;;;;;;;4.30;4.00;;;27.50;46.00;;;;;;10503846;28;20276;-80
2022/08/09 16:54:32;;;;;;;4.53;4.23;;;27.40;47.80;;;;;;10541982;28;20576;-80
2022/08/09 16:59:35;;;;;;;3.50;3.40;;;27.40;45.70;;;;;;10526885;28;20683;-80
2022/08/09 17:04:37;;;;;;;4.27;4.07;;;27.40;46.50;;;;;;10526985;28;20224;-80
2022/08/09 17:09:39;;;;;;;4.20;3.90;;;27.30;48.60;;;;;;10499234;28;20208;-80
2022/08/09 17:14:43;;;;;;;4.17;3.97;;;27.30;44.30;;;;;;10542576;28;20222;-80
2022/08/09 17:19:45;;;;;;;3.97;3.77;;;27.30;46.20;;;;;;10549988;28;20245;-79
2022/08/09 17:24:47;;;;;;;4.60;4.30;;;27.30;44.70;;;;;;10557194;28;20292;-79
2022/08/09 17:29:50;;;;;;;3.77;3.57;;;27.30;45.80;;;;;;10552069;28;20192;-79
2022/08/09 17:34:53;;;;;;;4.60;4.40;;;27.20;46.70;;;;;;10523447;28;20734;-79
2022/08/09 17:39:55;;;;;;;3.77;3.50;;;27.20;48.40;;;;;;10535964;28;20242;-79
2022/08/09 17:44:58;;;;;;;4.03;3.73;;;27.10;48.40;;;;;;10506911;28;20312;-79
2022/08/09 17:50:01;;;;;;;3.60;3.40;;;27.00;49.00;;;;;;10536516;28;20227;-79
2022/08/09 17:55:03;;;;;;;3.90;3.70;;;26.90;47.60;;;;;;10508626;28;20314;-79
2022/08/09 18:00:08;;;;;;;4.50;4.30;;;26.90;48.70;;;;;;10510456;28;20275;-79
2022/08/09 18:05:17;;;;;;;3.50;3.30;;;26.80;46.20;;;;;;10512071;28;20704;-79
2022/08/09 18:10:19;;;;;;;4.07;3.87;;;26.90;44.40;;;;;;10518813;28;20188;-79
2022/08/09 18:15:22;;;;;;;4.10;3.90;;;26.90;45.70;;;;;;10508963;28;20240;-79
2022/08/09 18:20:24;;;;;;;4.27;3.90;;;26.80;48.00;;;;;;10530707;28;20592;-80
2022/08/09 18:25:27;;;;;;;3.70;3.40;;;26.80;46.50;;;;;;10507144;28;20219;-80
2022/08/09 18:30:30;;;;;;;4.43;4.10;;;26.80;45.20;;;;;;10524124;28;20606;-80
2022/08/09 18:35:32;;;;;;;3.50;3.30;;;26.70;46.60;;;;;;10495039;28;20920;-81
2022/08/09 18:40:34;;;;;;;4.67;4.47;;;26.60;48.30;;;;;;10533436;28;20336;-80
2022/08/09 18:45:38;;;;;;;4.33;4.13;;;26.50;47.50;;;;;;10505346;28;20303;-80
2022/08/09 18:50:40;;;;;;;5.90;4.57;;;26.40;48.80;;;;;;10522459;28;20197;-80
2022/08/09 18:55:42;;;;;;;3.77;3.57;;;26.30;49.20;;;;;;10494686;28;20703;-78
2022/08/09 19:00:46;;;;;;;3.90;3.70;;;26.20;49.60;;;;;;10517940;28;20227;-80
2022/08/09 19:05:49;;;;;;;4.30;3.90;;;26.10;50.20;;;;;;10501958;28;20273;-79
2022/08/09 19:10:51;;;;;;;4.03;3.73;;;26.00;50.20;;;;;;10523090;28;20730;-78
2022/08/09 19:15:54;;;;;;;4.50;4.30;;;25.80;49.80;;;;;;10512393;28;20718;-79
2022/08/09 19:20:56;;;;;;;4.47;3.83;;;25.70;50.80;;;;;;10519538;28;20212;-79
2022/08/09 19:25:59;;;;;;;4.90;4.60;;;25.60;51.40;;;;;;10523454;28;20220;-79
2022/08/09 19:31:04;;;;;;;4.50;4.27;;;25.50;50.80;;;;;;10518669;28;20196;-78
2022/08/09 19:36:08;;;;;;;3.60;3.40;;;25.50;51.70;;;;;;10518867;28;20192;-78
2022/08/09 19:41:10;;;;;;;4.00;3.80;;;25.30;51.90;;;;;;10494976;28;20231;-77
2022/08/09 19:46:17;;;;;;;3.97;3.77;;;25.30;51.20;;;;;;10517565;28;20196;-77
2022/08/09 19:51:20;;;;;;;4.40;4.10;;;25.20;52.30;;;;;;10519718;28;20192;-77
2022/08/09 19:56:28;;;;;;;4.13;3.93;;;25.10;51.50;;;;;;10494698;28;20283;-79
2022/08/09 20:01:32;;;;;;;4.50;3.90;;;25.10;50.90;;;;;;10499226;28;20220;-79
2022/08/09 20:06:35;;;;;;;4.07;3.87;;;25.00;51.20;;;;;;10518027;28;20228;-78
2022/08/09 20:11:41;;;;;;;3.70;3.50;;;24.90;51.40;;;;;;10490993;28;20246;-78
2022/08/09 20:16:48;;;;;;;4.40;4.20;;;24.80;51.70;;;;;;10535038;28;20202;-78
2022/08/09 20:21:57;;;;;;;4.30;4.00;;;24.70;52.00;;;;;;10516389;28;20723;-78
2022/08/09 20:27:08;;;;;;;4.83;3.93;;;24.70;51.50;;;;;;10504679;28;20745;-78
2022/08/09 20:32:12;;;;;;;4.63;4.43;;;24.60;51.30;;;;;;10496341;28;20235;-78
2022/08/09 20:37:14;;;;;;;6.20;5.67;;;24.50;51.30;;;;;;10499631;28;20565;-78
2022/08/09 20:42:16;;;;;;;4.50;4.23;;;24.40;51.40;;;;;;10481142;28;20228;-79
2022/08/09 20:47:20;;;;;;;3.83;3.63;;;24.40;52.30;;;;;;10499772;28;20224;-79
2022/08/09 20:52:22;;;;;;;4.50;4.20;;;24.30;52.00;;;;;;10489522;28;20746;-80
2022/08/09 20:57:24;;;;;;;4.10;3.80;;;24.20;52.00;;;;;;10503955;28;20297;-79
2022/08/09 21:02:28;;;;;;;4.37;3.97;;;24.10;52.40;;;;;;10511482;28;20351;-80
2022/08/09 21:07:30;;;;;;;4.00;3.77;;;24.10;52.30;;;;;;10510187;28;20201;-79
2022/08/09 21:12:36;;;;;;;4.40;4.10;;;24.00;52.70;;;;;;10526356;28;20232;-78
2022/08/09 21:17:40;;;;;;;4.47;4.07;;;23.90;53.40;;;;;;10522408;28;20652;-78
2022/08/09 21:22:42;;;;;;;4.20;4.00;;;23.90;52.90;;;;;;10523974;28;20443;-79
2022/08/09 21:27:44;;;;;;;4.00;3.80;;;23.80;53.10;;;;;;10530105;28;20196;-78
2022/08/09 21:32:48;;;;;;;5.17;4.50;;;23.80;53.30;;;;;;10521617;28;20227;-78
2022/08/09 21:37:53;;;;;;;4.10;3.90;;;23.70;53.30;;;;;;10528718;28;20746;-78
2022/08/09 21:42:55;;;;;;;4.20;3.90;;;23.70;53.00;;;;;;10513620;28;20235;-78
2022/08/09 21:47:59;;;;;;;4.63;4.20;;;23.60;52.60;;;;;;10481051;28;20628;-80
2022/08/09 21:53:02;;;;;;;4.10;3.90;;;23.60;53.00;;;;;;10535019;28;20258;-80
2022/08/09 21:58:04;;;;;;;4.07;3.87;;;23.50;53.20;;;;;;10515664;28;20311;-78
2022/08/09 22:03:09;;;;;;;4.40;4.10;;;23.50;53.70;;;;;;10528626;28;20217;-78
2022/08/09 22:08:13;;;;;;;6.23;4.30;;;23.40;54.40;;;;;;10514970;28;20214;-78
2022/08/09 22:13:15;;;;;;;4.17;3.97;;;23.40;53.80;;;;;;10504508;28;20220;-80
2022/08/09 22:18:19;;;;;;;4.70;4.50;;;23.30;53.60;;;;;;10517419;28;20551;-78
2022/08/09 22:23:21;;;;;;;5.00;3.70;;;23.30;53.80;;;;;;10521147;28;20318;-80
2022/08/09 22:28:23;;;;;;;4.00;3.80;;;23.20;54.20;;;;;;10540699;28;20259;-80
2022/08/09 22:33:26;;;;;;;4.33;4.00;;;23.20;54.00;;;;;;10526284;28;20227;-80
2022/08/09 22:38:28;;;;;;;4.50;4.30;;;23.10;55.10;;;;;;10500410;28;20195;-78
2022/08/09 22:43:31;;;;;;;4.13;3.93;;;23.10;55.20;;;;;;10508379;28;20260;-78
2022/08/09 22:48:34;;;;;;;3.93;3.73;;;23.00;55.30;;;;;;10523797;28;20273;-78
2022/08/09 22:53:36;;;;;;;4.50;4.30;;;23.00;55.30;;;;;;10518867;28;20717;-78
2022/08/09 22:58:38;;;;;;;5.00;4.60;;;23.00;55.30;;;;;;10512773;28;20202;-78
2022/08/09 23:03:42;;;;;;;4.07;3.87;;;23.00;55.30;;;;;;10507240;28;20243;-78
2022/08/09 23:08:44;;;;;;;3.87;3.67;;;23.00;55.30;;;;;;10533470;28;20207;-78
2022/08/09 23:13:47;;;;;;;4.50;4.30;;;23.00;55.70;;;;;;10503854;28;20216;-78
2022/08/09 23:18:51;;;;;;;4.20;3.90;;;23.00;55.70;;;;;;10472982;28;20491;-78
2022/08/09 23:23:53;;;;;;;3.70;3.60;;;23.00;55.90;;;;;;10518556;28;20296;-78
2022/08/09 23:28:55;;;;;;;4.47;4.07;;;23.00;56.20;;;;;;10516562;28;20195;-78
2022/08/09 23:33:59;;;;;;;3.70;3.50;;;23.00;56.10;;;;;;10525689;28;20244;-78
2022/08/09 23:39:02;;;;;;;3.63;3.43;;;23.00;56.90;;;;;;10525295;28;20312;-78
2022/08/09 23:44:05;;;;;;;4.07;3.70;;;23.00;56.30;;;;;;10529987;28;20713;-78
2022/08/09 23:49:10;;;;;;;3.97;3.57;;;22.90;56.40;;;;;;10528585;28;20307;-78
2022/08/09 23:54:12;;;;;;;4.43;3.60;;;23.00;56.60;;;;;;10533397;28;20692;-78
2022/08/09 23:59:14;;;;;;;3.77;3.60;;;22.90;56.30;;;;;;10542267;28;20203;-78
